sensor_id;sensor_type;location;lat;lon;timestamp;P1;durP1;ratioP1;P2;durP2;ratioP2
28682;SDS011;15862;43.062;25.626;2023-02-15T00:01:14;61.65;;;32.10;;
28682;SDS011;15862;43.062;25.626;2023-02-15T00:03:39;65.45;;;34.33;;
28682;SDS011;15862;43.062;25.626;2023-02-15T00:06:05;63.88;;;33.67;;
28682;SDS011;15862;43.062;25.626;2023-02-15T00:08:31;73.70;;;35.38;;
28682;SDS011;15862;43.062;25.626;2023-02-15T00:11:06;67.32;;;34.60;;
28682;SDS011;15862;43.062;25.626;2023-02-15T00:13:33;65.75;;;34.85;;
28682;SDS011;15862;43.062;25.626;2023-02-15T00:16:04;70.60;;;35.47;;
28682;SDS011;15862;43.062;25.626;2023-02-15T00:18:32;73.45;;;36.88;;
28682;SDS011;15862;43.062;25.626;2023-02-15T00:20:58;67.13;;;33.17;;
28682;SDS011;15862;43.062;25.626;2023-02-15T00:23:27;65.18;;;34.78;;
28682;SDS011;15862;43.062;25.626;2023-02-15T00:26:02;70.38;;;31.42;;
28682;SDS011;15862;43.062;25.626;2023-02-15T00:28:35;61.13;;;30.50;;
28682;SDS011;15862;43.062;25.626;2023-02-15T00:31:08;62.08;;;31.92;;
28682;SDS011;15862;43.062;25.626;2023-02-15T00:33:35;64.60;;;34.00;;
28682;SDS011;15862;43.062;25.626;2023-02-15T00:36:02;68.15;;;34.63;;
28682;SDS011;15862;43.062;25.626;2023-02-15T00:38:29;62.50;;;33.50;;
28682;SDS011;15862;43.062;25.626;2023-02-15T00:40:56;69.35;;;33.67;;
28682;SDS011;15862;43.062;25.626;2023-02-15T00:43:22;64.60;;;32.50;;
28682;SDS011;15862;43.062;25.626;2023-02-15T00:45:48;61.95;;;31.42;;
28682;SDS011;15862;43.062;25.626;2023-02-15T00:48:14;69.43;;;32.08;;
28682;SDS011;15862;43.062;25.626;2023-02-15T00:50:39;56.15;;;30.13;;
28682;SDS011;15862;43.062;25.626;2023-02-15T00:53:05;58.95;;;31.95;;
28682;SDS011;15862;43.062;25.626;2023-02-15T00:55:30;63.72;;;30.90;;
28682;SDS011;15862;43.062;25.626;2023-02-15T00:57:55;60.10;;;29.88;;
28682;SDS011;15862;43.062;25.626;2023-02-15T01:00:21;59.63;;;30.10;;
28682;SDS011;15862;43.062;25.626;2023-02-15T01:02:46;57.47;;;29.65;;
28682;SDS011;15862;43.062;25.626;2023-02-15T01:05:12;64.72;;;31.15;;
28682;SDS011;15862;43.062;25.626;2023-02-15T01:07:38;63.03;;;31.85;;
28682;SDS011;15862;43.062;25.626;2023-02-15T01:10:04;59.83;;;29.25;;
28682;SDS011;15862;43.062;25.626;2023-02-15T01:12:31;61.20;;;32.15;;
28682;SDS011;15862;43.062;25.626;2023-02-15T01:14:56;63.90;;;33.47;;
28682;SDS011;15862;43.062;25.626;2023-02-15T01:17:22;64.68;;;31.38;;
28682;SDS011;15862;43.062;25.626;2023-02-15T01:19:47;61.55;;;32.75;;
28682;SDS011;15862;43.062;25.626;2023-02-15T01:22:13;55.75;;;28.50;;
28682;SDS011;15862;43.062;25.626;2023-02-15T01:24:38;57.90;;;29.80;;
28682;SDS011;15862;43.062;25.626;2023-02-15T01:27:03;58.83;;;30.45;;
28682;SDS011;15862;43.062;25.626;2023-02-15T01:29:29;61.47;;;29.00;;
28682;SDS011;15862;43.062;25.626;2023-02-15T01:31:54;60.58;;;29.40;;
28682;SDS011;15862;43.062;25.626;2023-02-15T01:34:20;63.03;;;31.67;;
28682;SDS011;15862;43.062;25.626;2023-02-15T01:36:45;63.83;;;30.50;;
28682;SDS011;15862;43.062;25.626;2023-02-15T01:39:10;63.03;;;31.77;;
28682;SDS011;15862;43.062;25.626;2023-02-15T01:41:36;68.57;;;31.13;;
28682;SDS011;15862;43.062;25.626;2023-02-15T01:44:02;61.80;;;31.65;;
28682;SDS011;15862;43.062;25.626;2023-02-15T01:46:38;55.78;;;28.75;;
28682;SDS011;15862;43.062;25.626;2023-02-15T01:49:11;61.65;;;29.48;;
28682;SDS011;15862;43.062;25.626;2023-02-15T01:51:42;60.45;;;29.80;;
28682;SDS011;15862;43.062;25.626;2023-02-15T01:56:49;63.20;;;28.77;;
28682;SDS011;15862;43.062;25.626;2023-02-15T01:59:16;62.13;;;29.15;;
28682;SDS011;15862;43.062;25.626;2023-02-15T02:01:45;67.60;;;33.25;;
28682;SDS011;15862;43.062;25.626;2023-02-15T02:07:03;61.88;;;30.67;;
28682;SDS011;15862;43.062;25.626;2023-02-15T02:09:29;59.75;;;30.52;;
28682;SDS011;15862;43.062;25.626;2023-02-15T02:11:55;64.40;;;31.20;;
28682;SDS011;15862;43.062;25.626;2023-02-15T02:14:20;63.88;;;32.38;;
28682;SDS011;15862;43.062;25.626;2023-02-15T02:16:51;64.15;;;30.45;;
28682;SDS011;15862;43.062;25.626;2023-02-15T02:19:43;68.82;;;31.63;;
28682;SDS011;15862;43.062;25.626;2023-02-15T02:34:25;62.80;;;29.80;;
28682;SDS011;15862;43.062;25.626;2023-02-15T02:44:43;60.15;;;28.30;;
28682;SDS011;15862;43.062;25.626;2023-02-15T02:47:21;56.15;;;28.60;;
28682;SDS011;15862;43.062;25.626;2023-02-15T02:50:00;59.60;;;29.48;;
28682;SDS011;15862;43.062;25.626;2023-02-15T02:57:52;61.45;;;28.77;;
28682;SDS011;15862;43.062;25.626;2023-02-15T03:00:19;61.53;;;29.13;;
28682;SDS011;15862;43.062;25.626;2023-02-15T03:02:51;58.50;;;28.10;;
28682;SDS011;15862;43.062;25.626;2023-02-15T03:05:23;57.60;;;27.15;;
28682;SDS011;15862;43.062;25.626;2023-02-15T03:07:52;61.55;;;29.50;;
28682;SDS011;15862;43.062;25.626;2023-02-15T03:10:22;64.63;;;30.50;;
28682;SDS011;15862;43.062;25.626;2023-02-15T03:12:49;57.97;;;27.73;;
28682;SDS011;15862;43.062;25.626;2023-02-15T03:15:20;62.08;;;28.98;;
28682;SDS011;15862;43.062;25.626;2023-02-15T03:17:55;65.88;;;31.20;;
28682;SDS011;15862;43.062;25.626;2023-02-15T03:20:33;60.13;;;27.10;;
28682;SDS011;15862;43.062;25.626;2023-02-15T03:23:03;61.22;;;30.55;;
28682;SDS011;15862;43.062;25.626;2023-02-15T03:25:34;63.58;;;30.77;;
28682;SDS011;15862;43.062;25.626;2023-02-15T03:28:08;56.38;;;26.95;;
28682;SDS011;15862;43.062;25.626;2023-02-15T03:30:36;62.40;;;28.00;;
28682;SDS011;15862;43.062;25.626;2023-02-15T03:33:05;59.08;;;27.77;;
28682;SDS011;15862;43.062;25.626;2023-02-15T03:35:46;57.85;;;28.85;;
28682;SDS011;15862;43.062;25.626;2023-02-15T03:38:29;60.15;;;30.23;;
28682;SDS011;15862;43.062;25.626;2023-02-15T03:41:01;60.42;;;29.70;;
28682;SDS011;15862;43.062;25.626;2023-02-15T03:43:49;65.68;;;29.83;;
28682;SDS011;15862;43.062;25.626;2023-02-15T03:46:23;64.00;;;29.30;;
28682;SDS011;15862;43.062;25.626;2023-02-15T03:48:58;61.42;;;29.08;;
28682;SDS011;15862;43.062;25.626;2023-02-15T03:51:29;69.20;;;30.85;;
28682;SDS011;15862;43.062;25.626;2023-02-15T03:54:04;61.42;;;28.20;;
28682;SDS011;15862;43.062;25.626;2023-02-15T03:56:35;63.35;;;30.23;;
28682;SDS011;15862;43.062;25.626;2023-02-15T03:59:04;60.60;;;28.55;;
28682;SDS011;15862;43.062;25.626;2023-02-15T04:01:58;57.30;;;27.05;;
28682;SDS011;15862;43.062;25.626;2023-02-15T04:04:33;61.58;;;30.05;;
28682;SDS011;15862;43.062;25.626;2023-02-15T04:07:05;64.45;;;29.98;;
28682;SDS011;15862;43.062;25.626;2023-02-15T04:09:32;58.00;;;27.52;;
28682;SDS011;15862;43.062;25.626;2023-02-15T04:12:16;59.58;;;28.55;;
28682;SDS011;15862;43.062;25.626;2023-02-15T04:14:41;57.33;;;28.10;;
28682;SDS011;15862;43.062;25.626;2023-02-15T04:17:25;62.60;;;30.23;;
28682;SDS011;15862;43.062;25.626;2023-02-15T04:19:51;56.67;;;26.95;;
28682;SDS011;15862;43.062;25.626;2023-02-15T04:22:35;55.45;;;26.60;;
28682;SDS011;15862;43.062;25.626;2023-02-15T04:25:19;55.53;;;24.92;;
28682;SDS011;15862;43.062;25.626;2023-02-15T04:27:47;63.65;;;28.08;;
28682;SDS011;15862;43.062;25.626;2023-02-15T04:30:15;62.08;;;28.10;;
28682;SDS011;15862;43.062;25.626;2023-02-15T04:32:41;60.45;;;28.85;;
28682;SDS011;15862;43.062;25.626;2023-02-15T04:35:07;56.20;;;27.98;;
28682;SDS011;15862;43.062;25.626;2023-02-15T04:37:34;61.38;;;28.67;;
28682;SDS011;15862;43.062;25.626;2023-02-15T04:39:59;64.82;;;29.75;;
28682;SDS011;15862;43.062;25.626;2023-02-15T04:42:25;70.28;;;29.65;;
28682;SDS011;15862;43.062;25.626;2023-02-15T04:44:51;61.92;;;29.52;;
28682;SDS011;15862;43.062;25.626;2023-02-15T04:47:17;60.90;;;27.20;;
28682;SDS011;15862;43.062;25.626;2023-02-15T04:49:43;65.75;;;27.23;;
28682;SDS011;15862;43.062;25.626;2023-02-15T04:52:08;62.05;;;28.23;;
28682;SDS011;15862;43.062;25.626;2023-02-15T04:54:34;64.55;;;27.77;;
28682;SDS011;15862;43.062;25.626;2023-02-15T04:57:00;68.35;;;27.70;;
28682;SDS011;15862;43.062;25.626;2023-02-15T04:59:26;68.75;;;30.60;;
28682;SDS011;15862;43.062;25.626;2023-02-15T05:01:51;58.55;;;29.70;;
28682;SDS011;15862;43.062;25.626;2023-02-15T05:04:16;67.88;;;28.98;;
28682;SDS011;15862;43.062;25.626;2023-02-15T05:06:42;67.28;;;30.40;;
28682;SDS011;15862;43.062;25.626;2023-02-15T05:09:07;59.97;;;29.10;;
28682;SDS011;15862;43.062;25.626;2023-02-15T05:11:33;68.15;;;32.65;;
28682;SDS011;15862;43.062;25.626;2023-02-15T05:13:58;67.60;;;30.38;;
28682;SDS011;15862;43.062;25.626;2023-02-15T05:16:24;68.45;;;31.92;;
28682;SDS011;15862;43.062;25.626;2023-02-15T05:18:50;64.10;;;28.58;;
28682;SDS011;15862;43.062;25.626;2023-02-15T05:21:15;62.72;;;28.17;;
28682;SDS011;15862;43.062;25.626;2023-02-15T05:23:41;58.40;;;29.00;;
28682;SDS011;15862;43.062;25.626;2023-02-15T05:26:09;59.40;;;28.67;;
28682;SDS011;15862;43.062;25.626;2023-02-15T05:28:55;62.83;;;27.70;;
28682;SDS011;15862;43.062;25.626;2023-02-15T05:31:20;62.08;;;28.70;;
28682;SDS011;15862;43.062;25.626;2023-02-15T05:33:45;67.10;;;30.40;;
28682;SDS011;15862;43.062;25.626;2023-02-15T05:36:11;65.30;;;29.85;;
28682;SDS011;15862;43.062;25.626;2023-02-15T05:38:37;63.17;;;31.38;;
28682;SDS011;15862;43.062;25.626;2023-02-15T05:41:06;69.25;;;31.63;;
28682;SDS011;15862;43.062;25.626;2023-02-15T05:43:33;67.55;;;31.40;;
28682;SDS011;15862;43.062;25.626;2023-02-15T05:45:58;67.15;;;30.70;;
28682;SDS011;15862;43.062;25.626;2023-02-15T05:48:25;68.60;;;30.33;;
28682;SDS011;15862;43.062;25.626;2023-02-15T05:51:08;70.70;;;34.05;;
28682;SDS011;15862;43.062;25.626;2023-02-15T05:53:38;70.50;;;30.33;;
28682;SDS011;15862;43.062;25.626;2023-02-15T05:56:04;67.55;;;30.92;;
28682;SDS011;15862;43.062;25.626;2023-02-15T05:58:32;64.13;;;30.45;;
28682;SDS011;15862;43.062;25.626;2023-02-15T06:01:06;64.03;;;30.90;;
28682;SDS011;15862;43.062;25.626;2023-02-15T06:03:33;69.97;;;31.05;;
28682;SDS011;15862;43.062;25.626;2023-02-15T06:05:58;64.95;;;30.85;;
28682;SDS011;15862;43.062;25.626;2023-02-15T06:08:24;77.63;;;31.45;;
28682;SDS011;15862;43.062;25.626;2023-02-15T06:10:49;82.63;;;39.03;;
28682;SDS011;15862;43.062;25.626;2023-02-15T06:13:14;78.78;;;38.05;;
28682;SDS011;15862;43.062;25.626;2023-02-15T06:15:40;64.63;;;31.00;;
28682;SDS011;15862;43.062;25.626;2023-02-15T06:18:06;69.03;;;31.77;;
28682;SDS011;15862;43.062;25.626;2023-02-15T06:20:31;74.03;;;32.58;;
28682;SDS011;15862;43.062;25.626;2023-02-15T06:22:57;69.57;;;33.42;;
28682;SDS011;15862;43.062;25.626;2023-02-15T06:25:22;83.95;;;35.72;;
28682;SDS011;15862;43.062;25.626;2023-02-15T06:27:49;90.65;;;41.33;;
28682;SDS011;15862;43.062;25.626;2023-02-15T06:30:14;108.13;;;59.60;;
28682;SDS011;15862;43.062;25.626;2023-02-15T06:32:40;116.28;;;58.75;;
28682;SDS011;15862;43.062;25.626;2023-02-15T06:35:06;312.58;;;89.32;;
28682;SDS011;15862;43.062;25.626;2023-02-15T06:37:31;234.00;;;71.07;;
28682;SDS011;15862;43.062;25.626;2023-02-15T06:39:57;111.22;;;61.60;;
28682;SDS011;15862;43.062;25.626;2023-02-15T06:42:22;79.43;;;44.22;;
28682;SDS011;15862;43.062;25.626;2023-02-15T06:44:48;66.15;;;36.13;;
28682;SDS011;15862;43.062;25.626;2023-02-15T06:47:13;67.15;;;41.38;;
28682;SDS011;15862;43.062;25.626;2023-02-15T06:49:39;50.88;;;31.58;;
28682;SDS011;15862;43.062;25.626;2023-02-15T06:52:04;54.58;;;33.60;;
28682;SDS011;15862;43.062;25.626;2023-02-15T06:54:30;52.70;;;34.92;;
28682;SDS011;15862;43.062;25.626;2023-02-15T06:56:55;49.08;;;28.58;;
28682;SDS011;15862;43.062;25.626;2023-02-15T06:59:21;40.97;;;26.75;;
28682;SDS011;15862;43.062;25.626;2023-02-15T07:01:47;44.42;;;26.55;;
28682;SDS011;15862;43.062;25.626;2023-02-15T07:04:17;50.63;;;26.42;;
28682;SDS011;15862;43.062;25.626;2023-02-15T07:06:42;43.92;;;28.50;;
28682;SDS011;15862;43.062;25.626;2023-02-15T07:09:08;47.55;;;30.75;;
28682;SDS011;15862;43.062;25.626;2023-02-15T07:11:33;46.15;;;27.30;;
28682;SDS011;15862;43.062;25.626;2023-02-15T07:14:18;77.80;;;30.52;;
28682;SDS011;15862;43.062;25.626;2023-02-15T07:16:43;50.38;;;27.08;;
28682;SDS011;15862;43.062;25.626;2023-02-15T07:19:09;53.40;;;28.00;;
28682;SDS011;15862;43.062;25.626;2023-02-15T07:21:35;51.38;;;29.95;;
28682;SDS011;15862;43.062;25.626;2023-02-15T07:24:01;49.38;;;29.33;;
28682;SDS011;15862;43.062;25.626;2023-02-15T07:26:27;58.50;;;30.52;;
28682;SDS011;15862;43.062;25.626;2023-02-15T07:28:52;61.90;;;40.67;;
28682;SDS011;15862;43.062;25.626;2023-02-15T07:31:18;51.90;;;28.83;;
28682;SDS011;15862;43.062;25.626;2023-02-15T07:33:43;54.40;;;30.77;;
28682;SDS011;15862;43.062;25.626;2023-02-15T07:36:09;55.65;;;32.58;;
28682;SDS011;15862;43.062;25.626;2023-02-15T07:41:33;54.72;;;34.90;;
28682;SDS011;15862;43.062;25.626;2023-02-15T07:43:59;54.97;;;33.85;;
28682;SDS011;15862;43.062;25.626;2023-02-15T07:46:24;57.25;;;34.10;;
28682;SDS011;15862;43.062;25.626;2023-02-15T07:48:55;49.58;;;29.85;;
28682;SDS011;15862;43.062;25.626;2023-02-15T07:51:22;41.10;;;26.92;;
28682;SDS011;15862;43.062;25.626;2023-02-15T07:53:48;44.83;;;25.73;;
28682;SDS011;15862;43.062;25.626;2023-02-15T07:56:13;48.33;;;26.85;;
28682;SDS011;15862;43.062;25.626;2023-02-15T07:58:40;40.53;;;26.52;;
28682;SDS011;15862;43.062;25.626;2023-02-15T08:03:46;37.55;;;25.25;;
28682;SDS011;15862;43.062;25.626;2023-02-15T08:06:12;61.85;;;25.98;;
28682;SDS011;15862;43.062;25.626;2023-02-15T08:08:38;40.05;;;23.20;;
28682;SDS011;15862;43.062;25.626;2023-02-15T08:14:08;35.00;;;20.88;;
28682;SDS011;15862;43.062;25.626;2023-02-15T08:16:35;43.38;;;21.95;;
28682;SDS011;15862;43.062;25.626;2023-02-15T08:19:06;48.78;;;31.80;;
28682;SDS011;15862;43.062;25.626;2023-02-15T08:21:37;46.10;;;30.73;;
28682;SDS011;15862;43.062;25.626;2023-02-15T08:24:05;69.38;;;43.00;;
28682;SDS011;15862;43.062;25.626;2023-02-15T08:26:31;101.63;;;51.83;;
28682;SDS011;15862;43.062;25.626;2023-02-15T08:28:57;82.32;;;47.75;;
28682;SDS011;15862;43.062;25.626;2023-02-15T08:31:24;112.80;;;74.57;;
28682;SDS011;15862;43.062;25.626;2023-02-15T08:33:50;121.57;;;46.05;;
28682;SDS011;15862;43.062;25.626;2023-02-15T08:53:48;22.75;;;14.93;;
28682;SDS011;15862;43.062;25.626;2023-02-15T08:56:15;56.03;;;19.95;;
28682;SDS011;15862;43.062;25.626;2023-02-15T08:58:42;50.47;;;17.27;;
28682;SDS011;15862;43.062;25.626;2023-02-15T09:01:08;43.72;;;16.33;;
28682;SDS011;15862;43.062;25.626;2023-02-15T09:03:38;29.55;;;15.25;;
28682;SDS011;15862;43.062;25.626;2023-02-15T09:06:04;32.38;;;16.50;;
28682;SDS011;15862;43.062;25.626;2023-02-15T09:08:31;24.65;;;13.75;;
28682;SDS011;15862;43.062;25.626;2023-02-15T09:11:07;32.67;;;14.43;;
28682;SDS011;15862;43.062;25.626;2023-02-15T09:13:33;30.92;;;15.85;;
28682;SDS011;15862;43.062;25.626;2023-02-15T09:16:00;31.77;;;16.17;;
28682;SDS011;15862;43.062;25.626;2023-02-15T09:18:26;24.48;;;14.48;;
28682;SDS011;15862;43.062;25.626;2023-02-15T09:20:52;19.42;;;13.80;;
28682;SDS011;15862;43.062;25.626;2023-02-15T09:23:17;18.35;;;11.88;;
28682;SDS011;15862;43.062;25.626;2023-02-15T09:25:42;18.08;;;12.25;;
28682;SDS011;15862;43.062;25.626;2023-02-15T09:28:08;17.40;;;12.05;;
28682;SDS011;15862;43.062;25.626;2023-02-15T09:30:33;76.10;;;16.10;;
28682;SDS011;15862;43.062;25.626;2023-02-15T09:32:59;30.42;;;15.90;;
28682;SDS011;15862;43.062;25.626;2023-02-15T09:35:24;21.10;;;12.50;;
28682;SDS011;15862;43.062;25.626;2023-02-15T09:37:50;21.52;;;13.15;;
28682;SDS011;15862;43.062;25.626;2023-02-15T09:40:16;17.88;;;12.93;;
28682;SDS011;15862;43.062;25.626;2023-02-15T09:42:45;25.67;;;11.77;;
28682;SDS011;15862;43.062;25.626;2023-02-15T09:45:31;21.42;;;12.40;;
28682;SDS011;15862;43.062;25.626;2023-02-15T09:56:10;18.48;;;12.73;;
28682;SDS011;15862;43.062;25.626;2023-02-15T09:58:50;28.17;;;13.45;;
28682;SDS011;15862;43.062;25.626;2023-02-15T10:09:17;25.40;;;13.57;;
28682;SDS011;15862;43.062;25.626;2023-02-15T10:12:14;17.25;;;12.95;;
28682;SDS011;15862;43.062;25.626;2023-02-15T10:31:23;21.45;;;14.43;;
28682;SDS011;15862;43.062;25.626;2023-02-15T10:33:55;20.35;;;13.02;;
28682;SDS011;15862;43.062;25.626;2023-02-15T10:41:48;23.05;;;13.18;;
28682;SDS011;15862;43.062;25.626;2023-02-15T10:52:33;16.85;;;11.48;;
28682;SDS011;15862;43.062;25.626;2023-02-15T11:01:03;21.85;;;11.77;;
28682;SDS011;15862;43.062;25.626;2023-02-15T11:06:50;27.00;;;12.48;;
28682;SDS011;15862;43.062;25.626;2023-02-15T11:09:21;32.72;;;19.85;;
28682;SDS011;15862;43.062;25.626;2023-02-15T11:11:49;17.42;;;13.10;;
28682;SDS011;15862;43.062;25.626;2023-02-15T11:17:23;21.20;;;11.93;;
28682;SDS011;15862;43.062;25.626;2023-02-15T11:22:27;17.60;;;10.85;;
28682;SDS011;15862;43.062;25.626;2023-02-15T11:24:55;28.20;;;10.07;;
28682;SDS011;15862;43.062;25.626;2023-02-15T11:27:32;17.88;;;11.40;;
28682;SDS011;15862;43.062;25.626;2023-02-15T11:30:12;28.00;;;11.82;;
28682;SDS011;15862;43.062;25.626;2023-02-15T11:32:40;23.10;;;13.77;;
28682;SDS011;15862;43.062;25.626;2023-02-15T11:38:21;21.35;;;13.02;;
28682;SDS011;15862;43.062;25.626;2023-02-15T11:40:53;22.60;;;13.35;;
28682;SDS011;15862;43.062;25.626;2023-02-15T11:43:26;20.95;;;11.60;;
28682;SDS011;15862;43.062;25.626;2023-02-15T11:45:58;20.27;;;10.85;;
28682;SDS011;15862;43.062;25.626;2023-02-15T11:48:25;14.73;;;10.10;;
28682;SDS011;15862;43.062;25.626;2023-02-15T11:50:53;20.33;;;11.32;;
28682;SDS011;15862;43.062;25.626;2023-02-15T11:53:19;13.98;;;10.25;;
28682;SDS011;15862;43.062;25.626;2023-02-15T11:55:47;46.78;;;12.88;;
28682;SDS011;15862;43.062;25.626;2023-02-15T12:00:58;17.67;;;9.90;;
28682;SDS011;15862;43.062;25.626;2023-02-15T12:06:04;18.35;;;10.13;;
28682;SDS011;15862;43.062;25.626;2023-02-15T12:08:42;14.40;;;9.25;;
28682;SDS011;15862;43.062;25.626;2023-02-15T12:11:20;15.20;;;8.75;;
28682;SDS011;15862;43.062;25.626;2023-02-15T12:13:55;12.73;;;8.63;;
28682;SDS011;15862;43.062;25.626;2023-02-15T12:16:25;11.18;;;8.10;;
28682;SDS011;15862;43.062;25.626;2023-02-15T12:18:54;15.88;;;9.25;;
28682;SDS011;15862;43.062;25.626;2023-02-15T12:23:56;17.03;;;9.93;;
28682;SDS011;15862;43.062;25.626;2023-02-15T12:26:27;13.05;;;8.25;;
28682;SDS011;15862;43.062;25.626;2023-02-15T12:28:55;11.70;;;8.13;;
28682;SDS011;15862;43.062;25.626;2023-02-15T12:31:37;27.35;;;9.40;;
28682;SDS011;15862;43.062;25.626;2023-02-15T12:34:19;13.93;;;9.45;;
28682;SDS011;15862;43.062;25.626;2023-02-15T12:36:51;16.23;;;9.25;;
28682;SDS011;15862;43.062;25.626;2023-02-15T12:39:26;11.13;;;9.23;;
28682;SDS011;15862;43.062;25.626;2023-02-15T12:44:20;181.48;;;28.33;;
28682;SDS011;15862;43.062;25.626;2023-02-15T12:52:05;303.73;;;34.20;;
28682;SDS011;15862;43.062;25.626;2023-02-15T12:54:47;23.35;;;11.60;;
28682;SDS011;15862;43.062;25.626;2023-02-15T12:59:58;25.95;;;12.13;;
28682;SDS011;15862;43.062;25.626;2023-02-15T13:02:31;16.58;;;9.95;;
28682;SDS011;15862;43.062;25.626;2023-02-15T13:05:04;16.08;;;9.77;;
28682;SDS011;15862;43.062;25.626;2023-02-15T13:13:31;12.95;;;9.68;;
28682;SDS011;15862;43.062;25.626;2023-02-15T13:16:00;19.60;;;11.45;;
28682;SDS011;15862;43.062;25.626;2023-02-15T13:18:36;14.52;;;10.25;;
28682;SDS011;15862;43.062;25.626;2023-02-15T13:21:11;18.15;;;10.02;;
28682;SDS011;15862;43.062;25.626;2023-02-15T13:23:58;17.38;;;11.20;;
28682;SDS011;15862;43.062;25.626;2023-02-15T13:26:29;26.90;;;11.32;;
28682;SDS011;15862;43.062;25.626;2023-02-15T13:28:57;24.02;;;11.65;;
28682;SDS011;15862;43.062;25.626;2023-02-15T13:39:24;28.58;;;12.35;;
28682;SDS011;15862;43.062;25.626;2023-02-15T13:42:29;18.27;;;12.05;;
28682;SDS011;15862;43.062;25.626;2023-02-15T13:56:43;17.17;;;10.18;;
28682;SDS011;15862;43.062;25.626;2023-02-15T14:01:51;16.58;;;11.35;;
28682;SDS011;15862;43.062;25.626;2023-02-15T14:04:35;16.80;;;10.02;;
28682;SDS011;15862;43.062;25.626;2023-02-15T14:07:16;14.02;;;10.02;;
28682;SDS011;15862;43.062;25.626;2023-02-15T14:18:25;21.90;;;12.88;;
28682;SDS011;15862;43.062;25.626;2023-02-15T14:21:06;19.08;;;11.07;;
28682;SDS011;15862;43.062;25.626;2023-02-15T14:32:04;19.13;;;10.93;;
28682;SDS011;15862;43.062;25.626;2023-02-15T14:34:53;29.73;;;13.48;;
28682;SDS011;15862;43.062;25.626;2023-02-15T14:40:40;20.17;;;11.32;;
28682;SDS011;15862;43.062;25.626;2023-02-15T14:56:42;21.83;;;11.85;;
28682;SDS011;15862;43.062;25.626;2023-02-15T15:04:32;24.48;;;13.70;;
28682;SDS011;15862;43.062;25.626;2023-02-15T15:09:41;19.45;;;11.60;;
28682;SDS011;15862;43.062;25.626;2023-02-15T15:14:47;19.15;;;13.30;;
28682;SDS011;15862;43.062;25.626;2023-02-15T15:20:38;28.25;;;12.73;;
28682;SDS011;15862;43.062;25.626;2023-02-15T15:25:40;23.13;;;14.50;;
28682;SDS011;15862;43.062;25.626;2023-02-15T15:31:47;26.50;;;15.82;;
28682;SDS011;15862;43.062;25.626;2023-02-15T15:45:03;26.95;;;14.82;;
28682;SDS011;15862;43.062;25.626;2023-02-15T15:47:50;25.60;;;14.10;;
28682;SDS011;15862;43.062;25.626;2023-02-15T15:50:26;22.88;;;12.93;;
28682;SDS011;15862;43.062;25.626;2023-02-15T15:52:53;25.77;;;13.73;;
28682;SDS011;15862;43.062;25.626;2023-02-15T15:55:21;30.20;;;13.05;;
28682;SDS011;15862;43.062;25.626;2023-02-15T15:57:50;28.98;;;14.70;;
28682;SDS011;15862;43.062;25.626;2023-02-15T16:02:56;36.00;;;14.63;;
28682;SDS011;15862;43.062;25.626;2023-02-15T16:05:21;26.38;;;13.27;;
28682;SDS011;15862;43.062;25.626;2023-02-15T16:07:48;33.85;;;13.35;;
28682;SDS011;15862;43.062;25.626;2023-02-15T16:10:35;24.48;;;13.45;;
28682;SDS011;15862;43.062;25.626;2023-02-15T16:13:00;28.08;;;13.88;;
28682;SDS011;15862;43.062;25.626;2023-02-15T16:15:41;28.20;;;14.13;;
28682;SDS011;15862;43.062;25.626;2023-02-15T16:18:13;27.10;;;14.40;;
28682;SDS011;15862;43.062;25.626;2023-02-15T16:20:41;29.73;;;14.70;;
28682;SDS011;15862;43.062;25.626;2023-02-15T16:23:26;25.90;;;13.57;;
28682;SDS011;15862;43.062;25.626;2023-02-15T16:26:26;28.33;;;13.80;;
28682;SDS011;15862;43.062;25.626;2023-02-15T16:29:15;29.63;;;15.13;;
28682;SDS011;15862;43.062;25.626;2023-02-15T16:31:43;28.85;;;13.60;;
28682;SDS011;15862;43.062;25.626;2023-02-15T16:34:22;28.48;;;13.98;;
28682;SDS011;15862;43.062;25.626;2023-02-15T16:36:48;29.73;;;15.50;;
28682;SDS011;15862;43.062;25.626;2023-02-15T16:39:17;34.03;;;14.18;;
28682;SDS011;15862;43.062;25.626;2023-02-15T16:41:44;41.50;;;14.85;;
28682;SDS011;15862;43.062;25.626;2023-02-15T16:44:16;39.70;;;14.65;;
28682;SDS011;15862;43.062;25.626;2023-02-15T16:46:46;38.67;;;13.82;;
28682;SDS011;15862;43.062;25.626;2023-02-15T16:49:23;31.33;;;16.52;;
28682;SDS011;15862;43.062;25.626;2023-02-15T16:52:01;31.05;;;15.57;;
28682;SDS011;15862;43.062;25.626;2023-02-15T16:54:31;43.65;;;15.10;;
28682;SDS011;15862;43.062;25.626;2023-02-15T16:56:57;24.70;;;13.63;;
28682;SDS011;15862;43.062;25.626;2023-02-15T16:59:34;32.70;;;14.82;;
28682;SDS011;15862;43.062;25.626;2023-02-15T17:02:05;37.97;;;16.40;;
28682;SDS011;15862;43.062;25.626;2023-02-15T17:04:36;31.92;;;15.13;;
28682;SDS011;15862;43.062;25.626;2023-02-15T17:07:17;34.65;;;16.50;;
28682;SDS011;15862;43.062;25.626;2023-02-15T17:09:51;32.22;;;15.38;;
28682;SDS011;15862;43.062;25.626;2023-02-15T17:15:23;37.97;;;15.35;;
28682;SDS011;15862;43.062;25.626;2023-02-15T17:20:45;32.10;;;14.90;;
28682;SDS011;15862;43.062;25.626;2023-02-15T17:23:22;34.63;;;17.40;;
28682;SDS011;15862;43.062;25.626;2023-02-15T17:25:54;34.65;;;17.30;;
28682;SDS011;15862;43.062;25.626;2023-02-15T17:28:22;59.92;;;18.55;;
28682;SDS011;15862;43.062;25.626;2023-02-15T17:30:50;33.83;;;16.60;;
28682;SDS011;15862;43.062;25.626;2023-02-15T17:33:37;36.65;;;16.38;;
28682;SDS011;15862;43.062;25.626;2023-02-15T17:36:05;46.05;;;17.45;;
28682;SDS011;15862;43.062;25.626;2023-02-15T17:38:32;35.83;;;15.50;;
28682;SDS011;15862;43.062;25.626;2023-02-15T17:40:58;41.50;;;17.27;;
28682;SDS011;15862;43.062;25.626;2023-02-15T17:43:26;32.40;;;15.40;;
28682;SDS011;15862;43.062;25.626;2023-02-15T17:45:51;33.75;;;17.58;;
28682;SDS011;15862;43.062;25.626;2023-02-15T17:48:22;38.80;;;16.23;;
28682;SDS011;15862;43.062;25.626;2023-02-15T17:50:55;35.92;;;16.60;;
28682;SDS011;15862;43.062;25.626;2023-02-15T17:53:20;49.67;;;18.20;;
28682;SDS011;15862;43.062;25.626;2023-02-15T17:55:46;46.40;;;16.63;;
28682;SDS011;15862;43.062;25.626;2023-02-15T17:58:13;50.75;;;18.35;;
28682;SDS011;15862;43.062;25.626;2023-02-15T18:00:44;45.88;;;18.60;;
28682;SDS011;15862;43.062;25.626;2023-02-15T18:03:46;38.38;;;16.70;;
28682;SDS011;15862;43.062;25.626;2023-02-15T18:06:32;40.08;;;17.42;;
28682;SDS011;15862;43.062;25.626;2023-02-15T18:09:18;39.95;;;17.00;;
28682;SDS011;15862;43.062;25.626;2023-02-15T18:14:50;45.92;;;19.15;;
28682;SDS011;15862;43.062;25.626;2023-02-15T18:17:21;46.50;;;19.65;;
28682;SDS011;15862;43.062;25.626;2023-02-15T18:19:52;49.92;;;21.75;;
28682;SDS011;15862;43.062;25.626;2023-02-15T18:22:18;47.65;;;19.35;;
28682;SDS011;15862;43.062;25.626;2023-02-15T18:24:45;65.78;;;23.30;;
28682;SDS011;15862;43.062;25.626;2023-02-15T18:27:12;42.05;;;19.98;;
28682;SDS011;15862;43.062;25.626;2023-02-15T18:29:38;43.70;;;21.95;;